Time;durP1;ratioP1;P1;durP2;ratioP2;P2;SDS_P1;SDS_P2;PMS_P1;PMS_P2;Temp;Humidity;BMP_temperature;BMP_pressure;BME280_temperature;BME280_humidity;BME280_pressure;Samples;Min_cycle;Max_cycle;Signal;HPM_P1;HPM_P2
2022/01/06 00:01:51;;;;;;;142.10;79.40;;;;;;;;;;5069174;28;20049;-72
2022/01/06 00:04:19;;;;;;;152.52;83.40;;;;;;;;;;5069047;28;20085;-72
2022/01/06 00:06:48;;;;;;;151.88;83.53;;;;;;;;;;5037043;28;20435;-72
2022/01/06 00:09:27;;;;;;;143.13;83.05;;;;;;;;;;5037380;28;20120;-72
2022/01/06 00:11:58;;;;;;;140.93;79.80;;;;;;;;;;5068855;28;20047;-72
2022/01/06 00:24:09;;;;;;;130.73;69.32;;;;;;;;;;5039151;28;20041;-72
2022/01/06 00:27:01;;;;;;;129.85;70.80;;;;;;;;;;5043097;28;20119;-72
2022/01/06 00:29:58;;;;;;;132.38;72.82;;;;;;;;;;5035522;28;20052;-72
2022/01/06 00:32:25;;;;;;;;;;;;;;;;;;5035179;28;20140;-71
2022/01/06 00:38:06;;;;;;;127.85;72.72;;;;;;;;;;5036733;28;20452;-72
2022/01/06 00:40:35;;;;;;;131.90;74.25;;;;;;;;;;5036461;28;20121;-72
2022/01/06 00:43:27;;;;;;;130.80;71.93;;;;;;;;;;5036334;28;20046;-72
2022/01/06 00:45:59;;;;;;;125.85;70.20;;;;;;;;;;5035946;28;20124;-72
2022/01/06 00:48:26;;;;;;;133.50;74.20;;;;;;;;;;5036734;28;20116;-72
2022/01/06 00:50:56;;;;;;;134.85;74.80;;;;;;;;;;5036137;28;20048;-72
2022/01/06 00:53:27;;;;;;;138.15;77.25;;;;;;;;;;5068119;28;20042;-72
2022/01/06 00:55:56;;;;;;;135.65;76.10;;;;;;;;;;5035870;28;20124;-72
2022/01/06 00:58:23;;;;;;;129.85;75.03;;;;;;;;;;5033996;28;20046;-72
2022/01/06 01:01:16;;;;;;;137.60;74.47;;;;;;;;;;5033590;28;20045;-72
2022/01/06 01:03:48;;;;;;;137.55;75.30;;;;;;;;;;5035201;28;20483;-72
2022/01/06 01:06:16;;;;;;;128.35;72.35;;;;;;;;;;5033598;28;20045;-72
2022/01/06 01:08:48;;;;;;;130.68;72.18;;;;;;;;;;5033909;28;20480;-72
2022/01/06 01:11:19;;;;;;;125.03;68.97;;;;;;;;;;5033485;28;20141;-71
2022/01/06 01:14:26;;;;;;;131.70;71.50;;;;;;;;;;5034938;28;20124;-72
2022/01/06 01:16:57;;;;;;;119.43;66.60;;;;;;;;;;5034808;28;20096;-72
2022/01/06 01:19:34;;;;;;;114.68;65.10;;;;;;;;;;5033255;28;20124;-72
2022/01/06 01:22:04;;;;;;;118.63;63.88;;;;;;;;;;5033225;28;20045;-74
2022/01/06 01:24:33;;;;;;;113.05;60.90;;;;;;;;;;5034936;28;20049;-71
2022/01/06 01:27:01;;;;;;;109.68;61.10;;;;;;;;;;5034176;28;20038;-73
2022/01/06 01:29:34;;;;;;;116.47;64.18;;;;;;;;;;5033499;28;20048;-71
2022/01/06 01:32:04;;;;;;;114.38;63.67;;;;;;;;;;5066285;28;20476;-71
2022/01/06 01:34:40;;;;;;;113.07;64.38;;;;;;;;;;5033123;28;20132;-71
2022/01/06 01:37:15;;;;;;;121.35;68.40;;;;;;;;;;5034045;28;20073;-71
2022/01/06 01:39:42;;;;;;;;;;;;;;;;;;5034252;28;20050;-72
2022/01/06 01:42:16;;;;;;;112.45;63.40;;;;;;;;;;5033024;28;20388;-72
2022/01/06 01:47:57;;;;;;;102.00;56.63;;;;;;;;;;5032575;28;20475;-72
2022/01/06 01:50:29;;;;;;;105.28;57.28;;;;;;;;;;5032770;28;20038;-72
2022/01/06 01:53:02;;;;;;;104.72;60.10;;;;;;;;;;5066035;28;20065;-73
2022/01/06 01:55:34;;;;;;;114.32;61.90;;;;;;;;;;5065642;28;20132;-72
2022/01/06 01:58:02;;;;;;;103.55;57.70;;;;;;;;;;4991755;28;1241365;-72
2022/01/06 02:00:35;;;;;;;103.80;58.88;;;;;;;;;;5034693;28;20408;-73
2022/01/06 02:03:04;;;;;;;107.85;60.80;;;;;;;;;;5034645;28;20073;-72
2022/01/06 02:05:33;;;;;;;108.47;59.65;;;;;;;;;;5033275;28;20381;-72
2022/01/06 02:08:05;;;;;;;105.28;58.53;;;;;;;;;;5035150;28;20069;-72
2022/01/06 02:10:33;;;;;;;104.78;59.40;;;;;;;;;;5066277;28;20045;-72
2022/01/06 02:13:05;;;;;;;112.50;62.90;;;;;;;;;;5035015;28;20045;-72
2022/01/06 02:15:38;;;;;;;110.57;62.25;;;;;;;;;;5034376;28;20555;-73
2022/01/06 02:18:08;;;;;;;113.00;63.08;;;;;;;;;;5033355;28;20145;-72
2022/01/06 02:23:48;;;;;;;109.45;62.50;;;;;;;;;;5034224;28;20116;-72
2022/01/06 02:26:41;;;;;;;101.25;61.28;;;;;;;;;;5034205;28;20064;-72
2022/01/06 02:29:08;;;;;;;109.65;62.20;;;;;;;;;;5033191;28;20046;-72
2022/01/06 02:31:46;;;;;;;114.70;64.55;;;;;;;;;;5066155;28;20038;-72
2022/01/06 02:34:16;;;;;;;109.03;62.47;;;;;;;;;;5033936;28;20037;-72
2022/01/06 02:36:46;;;;;;;109.15;62.75;;;;;;;;;;5066082;28;20077;-72
2022/01/06 02:39:13;;;;;;;100.25;62.15;;;;;;;;;;5032382;28;20042;-73
2022/01/06 02:41:49;;;;;;;107.55;60.30;;;;;;;;;;5034661;28;20554;-72
2022/01/06 02:44:24;;;;;;;108.45;61.83;;;;;;;;;;5034213;28;20069;-72
2022/01/06 02:46:52;;;;;;;100.25;62.63;;;;;;;;;;5032859;28;20054;-72
2022/01/06 02:49:20;;;;;;;107.20;60.88;;;;;;;;;;5034101;28;20045;-72
2022/01/06 02:52:13;;;;;;;104.30;60.90;;;;;;;;;;5033690;28;20449;-72
2022/01/06 02:54:45;;;;;;;104.88;59.75;;;;;;;;;;5034149;28;20096;-72
2022/01/06 02:57:13;;;;;;;112.28;62.42;;;;;;;;;;5034187;28;20107;-72
2022/01/06 02:59:44;;;;;;;113.13;63.08;;;;;;;;;;5032119;28;20042;-72
2022/01/06 03:02:13;;;;;;;108.97;60.97;;;;;;;;;;5033425;28;20572;-72
2022/01/06 03:04:42;;;;;;;107.28;62.58;;;;;;;;;;5034040;28;20403;-72
2022/01/06 03:07:11;;;;;;;103.97;60.42;;;;;;;;;;5032412;28;20049;-72
2022/01/06 03:09:50;;;;;;;105.22;58.30;;;;;;;;;;5033910;28;20108;-73
2022/01/06 03:12:25;;;;;;;101.93;57.42;;;;;;;;;;5033714;28;20124;-73
2022/01/06 03:14:57;;;;;;;102.03;59.20;;;;;;;;;;5033775;28;20109;-72
2022/01/06 03:17:25;;;;;;;107.65;59.75;;;;;;;;;;5032145;28;20555;-72
2022/01/06 03:19:57;;;;;;;106.45;60.17;;;;;;;;;;5032185;28;20045;-73
2022/01/06 03:22:25;;;;;;;103.72;59.67;;;;;;;;;;5033771;28;20447;-73
2022/01/06 03:24:52;;;;;;;104.63;57.45;;;;;;;;;;5032197;28;20412;-72
2022/01/06 03:27:23;;;;;;;100.72;58.80;;;;;;;;;;5033502;28;20535;-73
2022/01/06 03:29:55;;;;;;;102.47;60.92;;;;;;;;;;5064858;28;20128;-72
2022/01/06 03:32:28;;;;;;;96.85;57.00;;;;;;;;;;5065444;28;20046;-72
2022/01/06 03:35:00;;;;;;;101.65;57.85;;;;;;;;;;5033214;28;20091;-72
2022/01/06 03:37:28;;;;;;;97.80;58.10;;;;;;;;;;5032174;28;20437;-72
2022/01/06 03:40:04;;;;;;;104.07;58.20;;;;;;;;;;5065456;28;20049;-72
2022/01/06 03:42:32;;;;;;;101.30;57.13;;;;;;;;;;5033294;28;20553;-72
2022/01/06 03:45:07;;;;;;;99.93;57.45;;;;;;;;;;5031775;28;20049;-72
2022/01/06 03:47:37;;;;;;;78.60;44.95;;;;;;;;;;5032939;28;20049;-72
2022/01/06 03:50:11;;;;;;;95.63;56.40;;;;;;;;;;5065566;28;20037;-72
2022/01/06 03:52:41;;;;;;;103.20;57.30;;;;;;;;;;5032088;28;20096;-72
2022/01/06 03:55:12;;;;;;;107.45;58.15;;;;;;;;;;5033108;28;20575;-72
2022/01/06 03:57:40;;;;;;;96.75;57.45;;;;;;;;;;5032895;28;20050;-72
2022/01/06 04:00:25;;;;;;;97.20;55.88;;;;;;;;;;5031870;28;20053;-72
2022/01/06 04:02:53;;;;;;;98.05;57.17;;;;;;;;;;5032395;28;20116;-72
2022/01/06 04:05:23;;;;;;;95.85;56.17;;;;;;;;;;5031498;28;20507;-72
2022/01/06 04:07:55;;;;;;;104.18;58.50;;;;;;;;;;5031696;28;20081;-72
2022/01/06 04:10:27;;;;;;;97.45;58.10;;;;;;;;;;5065215;28;20407;-72
2022/01/06 04:13:19;;;;;;;96.25;57.42;;;;;;;;;;5031086;28;20091;-71
2022/01/06 04:15:52;;;;;;;96.43;55.70;;;;;;;;;;5032035;28;20049;-72
2022/01/06 04:18:20;;;;;;;102.18;58.88;;;;;;;;;;5032923;28;20523;-72
2022/01/06 04:20:51;;;;;;;96.57;56.05;;;;;;;;;;5031360;28;20399;-72
2022/01/06 04:23:23;;;;;;;100.90;56.80;;;;;;;;;;5032778;28;20549;-72
2022/01/06 04:25:52;;;;;;;94.55;55.47;;;;;;;;;;5032924;28;20049;-72
2022/01/06 04:28:21;;;;;;;95.75;56.88;;;;;;;;;;5031796;28;20381;-72
2022/01/06 04:31:21;;;;;;;93.78;58.30;;;;;;;;;;5033003;28;20048;-72
2022/01/06 04:33:49;;;;;;;95.15;57.72;;;;;;;;;;5064916;28;20065;-72
2022/01/06 04:36:48;;;;;;;100.38;57.85;;;;;;;;;;5032004;28;20397;-72
2022/01/06 04:39:40;;;;;;;100.80;57.35;;;;;;;;;;5065108;28;20137;-72
2022/01/06 04:42:08;;;;;;;113.22;59.85;;;;;;;;;;5039338;28;20077;-72
2022/01/06 04:48:10;;;;;;;98.80;56.03;;;;;;;;;;5036719;28;20473;-72
2022/01/06 04:54:40;;;;;;;102.85;56.97;;;;;;;;;;5035391;28;20112;-72
2022/01/06 04:57:08;;;;;;;103.88;58.03;;;;;;;;;;5035275;28;20045;-72
2022/01/06 05:00:01;;;;;;;105.53;59.63;;;;;;;;;;5035666;28;20046;-72
2022/01/06 05:02:32;;;;;;;95.55;55.17;;;;;;;;;;5036047;28;20049;-72
2022/01/06 05:05:00;;;;;;;97.38;54.63;;;;;;;;;;5034445;28;20083;-72
2022/01/06 05:07:35;;;;;;;100.53;55.55;;;;;;;;;;5036309;28;20041;-72
2022/01/06 05:10:07;;;;;;;96.88;55.13;;;;;;;;;;5035761;28;20488;-72
2022/01/06 05:12:49;;;;;;;101.53;57.53;;;;;;;;;;5036098;28;20092;-72
2022/01/06 05:15:16;;;;;;;103.97;59.90;;;;;;;;;;5035833;28;20080;-72
2022/01/06 05:18:09;;;;;;;107.45;60.92;;;;;;;;;;5034556;28;20045;-72
2022/01/06 05:21:02;;;;;;;118.25;63.63;;;;;;;;;;5034587;28;20107;-72
2022/01/06 05:23:34;;;;;;;121.78;65.22;;;;;;;;;;5035719;28;20037;-72
2022/01/06 05:26:03;;;;;;;111.78;63.78;;;;;;;;;;5034903;28;20503;-72
2022/01/06 05:28:30;;;;;;;116.68;64.63;;;;;;;;;;5016430;28;20037;-72
2022/01/06 05:34:13;;;;;;;114.88;62.17;;;;;;;;;;5033727;28;20053;-72
2022/01/06 05:37:16;;;;;;;104.97;60.85;;;;;;;;;;5033554;28;20041;-71
2022/01/06 05:39:47;;;;;;;119.68;61.55;;;;;;;;;;5033217;28;20049;-72
2022/01/06 05:42:15;;;;;;;114.03;65.03;;;;;;;;;;5034086;28;20128;-72
2022/01/06 05:44:48;;;;;;;129.95;67.28;;;;;;;;;;5033715;28;20116;-72
2022/01/06 05:47:20;;;;;;;134.40;68.90;;;;;;;;;;5034557;28;20054;-72
2022/01/06 05:49:48;;;;;;;126.43;65.38;;;;;;;;;;5033298;28;20069;-72
2022/01/06 05:52:21;;;;;;;127.88;67.93;;;;;;;;;;5035224;28;20048;-72
2022/01/06 05:54:55;;;;;;;119.75;66.25;;;;;;;;;;5033859;28;20042;-72
2022/01/06 05:57:22;;;;;;;136.90;69.88;;;;;;;;;;5030611;28;20504;-72
2022/01/06 05:59:50;;;;;;;138.73;73.47;;;;;;;;;;5044628;28;20049;-72
2022/01/06 06:02:18;;;;;;;138.63;77.00;;;;;;;;;;5044549;28;20033;-72
2022/01/06 06:04:47;;;;;;;150.27;77.18;;;;;;;;;;5054680;28;20041;-72
2022/01/06 06:07:17;;;;;;;141.95;75.97;;;;;;;;;;5054603;28;20045;-71
2022/01/06 06:09:47;;;;;;;162.20;80.55;;;;;;;;;;5054770;28;20060;-71
2022/01/06 06:12:17;;;;;;;182.55;91.85;;;;;;;;;;5054876;28;20041;-72
2022/01/06 06:14:48;;;;;;;181.45;89.53;;;;;;;;;;5053240;28;20047;-72
2022/01/06 06:17:16;;;;;;;226.07;98.18;;;;;;;;;;5052916;28;20052;-72
2022/01/06 06:19:44;;;;;;;303.08;123.53;;;;;;;;;;5054536;28;20376;-71
2022/01/06 06:22:13;;;;;;;295.05;132.73;;;;;;;;;;5052974;28;20087;-72
2022/01/06 06:24:45;;;;;;;302.35;132.55;;;;;;;;;;5053151;28;20063;-72
2022/01/06 06:27:14;;;;;;;281.80;126.03;;;;;;;;;;5054307;28;20131;-71
2022/01/06 06:29:45;;;;;;;305.77;133.40;;;;;;;;;;5054517;28;20045;-71
2022/01/06 06:32:18;;;;;;;287.27;129.05;;;;;;;;;;5052918;28;20517;-71
2022/01/06 06:34:48;;;;;;;263.33;119.13;;;;;;;;;;5052863;28;20037;-72
2022/01/06 06:37:18;;;;;;;188.90;93.65;;;;;;;;;;5054066;28;20052;-72
2022/01/06 06:39:50;;;;;;;149.38;82.43;;;;;;;;;;5052705;28;20041;-72
2022/01/06 06:42:17;;;;;;;126.43;72.60;;;;;;;;;;5054359;28;20451;-71
2022/01/06 06:44:48;;;;;;;141.98;74.47;;;;;;;;;;5052816;28;20398;-71
2022/01/06 06:47:40;;;;;;;122.15;69.10;;;;;;;;;;5053839;28;20052;-71
2022/01/06 06:50:15;;;;;;;124.97;69.30;;;;;;;;;;5054404;28;20132;-72
2022/01/06 06:52:48;;;;;;;144.70;84.28;;;;;;;;;;5052461;28;20065;-72
2022/01/06 06:55:18;;;;;;;116.60;65.20;;;;;;;;;;5053718;28;20446;-72
2022/01/06 06:57:49;;;;;;;105.20;62.67;;;;;;;;;;5052181;28;20088;-71
2022/01/06 07:00:20;;;;;;;109.68;63.53;;;;;;;;;;5054001;28;20044;-72
2022/01/06 07:02:49;;;;;;;107.03;64.30;;;;;;;;;;5053744;28;20087;-71
2022/01/06 07:05:19;;;;;;;109.40;64.75;;;;;;;;;;5053019;28;20487;-72
2022/01/06 07:07:52;;;;;;;123.32;70.45;;;;;;;;;;5052314;28;20041;-71
2022/01/06 07:10:23;;;;;;;114.38;66.97;;;;;;;;;;5052513;28;20041;-71
2022/01/06 07:12:52;;;;;;;116.05;68.72;;;;;;;;;;5053543;28;20483;-72
2022/01/06 07:15:22;;;;;;;115.20;69.22;;;;;;;;;;5053640;28;20143;-71
2022/01/06 07:17:54;;;;;;;113.32;67.25;;;;;;;;;;5054023;28;20049;-71
2022/01/06 07:20:23;;;;;;;106.10;66.10;;;;;;;;;;5053655;28;20063;-72
2022/01/06 07:22:55;;;;;;;106.40;66.38;;;;;;;;;;5052050;28;20037;-72
2022/01/06 07:25:25;;;;;;;109.13;66.78;;;;;;;;;;5053530;28;20120;-72
2022/01/06 07:27:55;;;;;;;107.70;67.22;;;;;;;;;;5053119;28;20056;-72
2022/01/06 07:30:26;;;;;;;112.95;69.60;;;;;;;;;;5053069;28;20037;-72
2022/01/06 07:33:00;;;;;;;121.20;72.68;;;;;;;;;;5053635;28;20071;-71
2022/01/06 07:35:28;;;;;;;123.00;72.63;;;;;;;;;;5053074;28;20116;-72
2022/01/06 07:37:58;;;;;;;123.53;72.88;;;;;;;;;;5053120;28;20484;-71
2022/01/06 07:40:32;;;;;;;117.53;71.00;;;;;;;;;;5053352;28;20124;-71
2022/01/06 07:43:00;;;;;;;118.47;70.88;;;;;;;;;;5052890;28;20120;-72
2022/01/06 07:45:28;;;;;;;110.68;72.00;;;;;;;;;;5053513;28;20048;-71
2022/01/06 07:48:03;;;;;;;115.15;71.55;;;;;;;;;;5052594;28;20064;-71
2022/01/06 07:50:32;;;;;;;114.95;66.93;;;;;;;;;;5053000;28;20084;-71
2022/01/06 07:53:02;;;;;;;112.72;68.68;;;;;;;;;;5051715;28;20037;-72
2022/01/06 07:55:37;;;;;;;118.65;72.95;;;;;;;;;;5052981;28;20037;-73
2022/01/06 07:58:04;;;;;;;138.27;88.35;;;;;;;;;;5052944;28;20444;-72
2022/01/06 08:01:00;;;;;;;133.07;81.53;;;;;;;;;;5053044;28;20071;-72
2022/01/06 08:03:33;;;;;;;;;;;;;;;;;;5052071;28;20136;-71
2022/01/06 08:06:00;;;;;;;130.70;79.72;;;;;;;;;;5053022;28;20007;-71
2022/01/06 08:08:28;;;;;;;124.68;80.43;;;;;;;;;;5051894;28;20541;-72
2022/01/06 08:10:57;;;;;;;114.75;72.22;;;;;;;;;;5053079;28;20099;-71
2022/01/06 08:13:31;;;;;;;111.80;72.97;;;;;;;;;;5052944;28;20033;-72
2022/01/06 08:15:58;;;;;;;114.30;72.57;;;;;;;;;;5051612;28;20102;-71
2022/01/06 08:18:28;;;;;;;119.45;75.45;;;;;;;;;;5054562;28;20383;-72
2022/01/06 08:21:00;;;;;;;125.45;75.82;;;;;;;;;;5055708;28;20521;-71
2022/01/06 08:23:28;;;;;;;122.97;76.03;;;;;;;;;;5038903;28;20511;-71
2022/01/06 08:25:58;;;;;;;127.95;76.05;;;;;;;;;;5056581;28;20070;-71
2022/01/06 08:28:51;;;;;;;119.47;75.80;;;;;;;;;;5055518;28;20124;-72
2022/01/06 08:31:44;;;;;;;121.25;73.65;;;;;;;;;;5056891;28;20501;-71
2022/01/06 08:34:16;;;;;;;111.93;71.18;;;;;;;;;;5055569;28;20479;-71
2022/01/06 08:36:52;;;;;;;104.72;66.97;;;;;;;;;;5054925;28;20098;-72
2022/01/06 08:39:20;;;;;;;110.45;66.65;;;;;;;;;;5056430;28;20083;-71
2022/01/06 08:41:50;;;;;;;120.13;70.88;;;;;;;;;;5056670;28;20047;-72
2022/01/06 08:44:17;;;;;;;110.43;69.28;;;;;;;;;;5056244;28;20053;-72
2022/01/06 08:46:55;;;;;;;100.78;64.47;;;;;;;;;;5055493;28;20041;-72
2022/01/06 08:49:27;;;;;;;78.60;52.38;;;;;;;;;;5056830;28;20120;-72
2022/01/06 08:52:03;;;;;;;71.35;46.50;;;;;;;;;;5055925;28;20045;-72
2022/01/06 08:54:56;;;;;;;66.35;42.35;;;;;;;;;;5060425;28;20377;-70
2022/01/06 08:57:24;;;;;;;63.38;42.70;;;;;;;;;;5055976;28;20147;-72
2022/01/06 09:02:58;;;;;;;45.92;32.10;;;;;;;;;;5056380;28;20060;-72
2022/01/06 09:05:27;;;;;;;41.55;27.65;;;;;;;;;;5055467;28;20513;-72
2022/01/06 09:07:59;;;;;;;39.50;28.50;;;;;;;;;;5056167;28;20049;-72
2022/01/06 09:10:36;;;;;;;34.70;25.25;;;;;;;;;;5056322;28;20045;-72
2022/01/06 09:13:48;;;;;;;35.20;23.92;;;;;;;;;;5055935;28;20040;-72
2022/01/06 09:16:15;;;;;;;34.78;23.55;;;;;;;;;;5055733;28;20476;-72
2022/01/06 09:19:08;;;;;;;30.92;23.10;;;;;;;;;;5039770;28;20552;-72
2022/01/06 09:22:01;;;;;;;28.35;20.15;;;;;;;;;;5035779;28;20123;-72
2022/01/06 09:24:54;;;;;;;29.25;20.48;;;;;;;;;;5035638;28;20049;-72
2022/01/06 09:27:23;;;;;;;27.65;20.60;;;;;;;;;;5034510;28;20084;-72
2022/01/06 09:29:53;;;;;;;22.45;17.20;;;;;;;;;;5034092;28;20077;-72
2022/01/06 09:32:34;;;;;;;26.60;19.25;;;;;;;;;;5035631;28;20076;-72
2022/01/06 09:35:04;;;;;;;24.73;18.25;;;;;;;;;;5035901;28;20056;-72
2022/01/06 09:37:36;;;;;;;29.80;21.77;;;;;;;;;;5035761;28;20045;-72
2022/01/06 09:43:04;;;;;;;24.58;19.02;;;;;;;;;;5033899;28;20571;-72
2022/01/06 09:45:34;;;;;;;22.00;15.80;;;;;;;;;;5034560;28;20045;-72
2022/01/06 09:48:08;;;;;;;18.45;14.18;;;;;;;;;;5035328;28;20045;-72
2022/01/06 09:50:42;;;;;;;18.00;12.82;;;;;;;;;;5035350;28;20100;-72
2022/01/06 09:53:12;;;;;;;13.48;7.80;;;;;;;;;;5035074;28;20117;-72
2022/01/06 09:55:43;;;;;;;13.75;8.82;;;;;;;;;;5033997;28;20466;-72
2022/01/06 09:58:12;;;;;;;10.73;7.53;;;;;;;;;;5033590;28;20136;-72
2022/01/06 10:00:40;;;;;;;12.00;7.68;;;;;;;;;;5034796;28;20048;-72
2022/01/06 10:03:08;;;;;;;10.75;7.30;;;;;;;;;;5035692;28;20052;-72
2022/01/06 10:06:01;;;;;;;10.73;6.93;;;;;;;;;;5034481;28;20153;-72
2022/01/06 10:08:32;;;;;;;7.13;4.85;;;;;;;;;;5034180;28;20126;-72
2022/01/06 10:11:21;;;;;;;11.85;5.03;;;;;;;;;;5035482;28;20041;-72
2022/01/06 10:13:56;;;;;;;12.18;5.32;;;;;;;;;;5035327;28;20069;-72
2022/01/06 10:16:24;;;;;;;25.00;13.15;;;;;;;;;;5034499;28;20140;-72
2022/01/06 10:19:04;;;;;;;9.63;5.85;;;;;;;;;;5033706;28;20038;-72
2022/01/06 10:21:36;;;;;;;22.05;11.63;;;;;;;;;;5034545;28;20062;-72
2022/01/06 10:24:11;;;;;;;14.65;8.55;;;;;;;;;;5034904;28;20441;-72
2022/01/06 10:26:51;;;;;;;12.90;7.65;;;;;;;;;;5034542;28;20136;-72
2022/01/06 10:29:20;;;;;;;12.60;7.07;;;;;;;;;;5034348;28;20447;-72
2022/01/06 10:32:15;;;;;;;11.63;6.90;;;;;;;;;;5034613;28;20507;-72
2022/01/06 10:34:46;;;;;;;13.53;7.70;;;;;;;;;;5035351;28;20077;-72
2022/01/06 10:37:24;;;;;;;13.30;6.68;;;;;;;;;;5032797;28;20423;-72
2022/01/06 10:39:57;;;;;;;10.32;6.07;;;;;;;;;;5033561;28;20076;-72
2022/01/06 10:42:36;;;;;;;12.77;8.23;;;;;;;;;;5034111;28;20053;-72
2022/01/06 10:45:18;;;;;;;11.32;7.30;;;;;;;;;;5034429;28;20041;-72
2022/01/06 10:47:55;;;;;;;10.98;5.97;;;;;;;;;;5032663;28;20041;-72
2022/01/06 10:50:27;;;;;;;13.80;10.60;;;;;;;;;;5034247;28;20439;-72
2022/01/06 10:53:00;;;;;;;9.43;6.60;;;;;;;;;;5034073;28;20048;-72
2022/01/06 10:55:34;;;;;;;14.90;9.68;;;;;;;;;;5034061;28;20042;-72
2022/01/06 10:58:07;;;;;;;14.27;7.13;;;;;;;;;;5033962;28;20077;-72
2022/01/06 11:00:40;;;;;;;15.05;7.88;;;;;;;;;;5033822;28;20045;-72
2022/01/06 11:03:17;;;;;;;11.38;7.10;;;;;;;;;;5032646;28;20050;-72
2022/01/06 11:05:48;;;;;;;12.30;6.25;;;;;;;;;;5033966;28;20475;-72
2022/01/06 11:08:20;;;;;;;12.68;6.57;;;;;;;;;;5032306;28;20077;-72
2022/01/06 11:13:49;;;;;;;12.60;5.80;;;;;;;;;;5033997;28;20443;-72
2022/01/06 11:16:18;;;;;;;13.90;5.80;;;;;;;;;;5033657;28;20447;-72
2022/01/06 11:18:58;;;;;;;9.55;5.70;;;;;;;;;;5033316;28;20377;-72
2022/01/06 11:21:34;;;;;;;9.40;5.43;;;;;;;;;;5033420;28;20092;-72
2022/01/06 11:24:12;;;;;;;11.25;5.53;;;;;;;;;;5034030;28;20080;-72
2022/01/06 11:26:41;;;;;;;23.05;14.25;;;;;;;;;;5033717;28;20042;-72
2022/01/06 11:29:09;;;;;;;9.27;5.90;;;;;;;;;;5031685;28;20408;-72
2022/01/06 11:31:42;;;;;;;11.32;6.43;;;;;;;;;;5033521;28;20080;-72
2022/01/06 11:34:11;;;;;;;16.77;7.28;;;;;;;;;;5033408;28;20120;-72
2022/01/06 11:36:41;;;;;;;9.18;6.25;;;;;;;;;;5031672;28;20065;-72
2022/01/06 11:39:29;;;;;;;10.50;6.30;;;;;;;;;;5032418;28;20046;-72
2022/01/06 11:41:58;;;;;;;8.10;5.43;;;;;;;;;;5033320;28;20045;-72
2022/01/06 11:44:27;;;;;;;10.25;5.88;;;;;;;;;;5033588;28;20034;-72
2022/01/06 11:46:57;;;;;;;13.18;5.93;;;;;;;;;;5033080;28;20065;-73
2022/01/06 11:49:31;;;;;;;12.45;6.50;;;;;;;;;;5031961;28;20454;-72
2022/01/06 11:52:10;;;;;;;10.23;5.97;;;;;;;;;;5035166;28;20065;-72
2022/01/06 11:54:50;;;;;;;13.55;6.10;;;;;;;;;;5037381;28;20402;-72
2022/01/06 11:57:47;;;;;;;13.63;5.97;;;;;;;;;;5036252;28;20467;-71
2022/01/06 12:00:19;;;;;;;11.40;6.60;;;;;;;;;;5040795;28;20046;-71
2022/01/06 12:03:01;;;;;;;10.70;6.25;;;;;;;;;;5037638;28;20144;-71
2022/01/06 12:05:54;;;;;;;13.38;6.05;;;;;;;;;;5035787;28;20042;-71
2022/01/06 12:08:40;;;;;;;9.45;6.00;;;;;;;;;;5036960;28;20519;-71
2022/01/06 12:11:40;;;;;;;9.98;5.75;;;;;;;;;;5037040;28;20038;-72
2022/01/06 12:14:08;;;;;;;10.10;6.53;;;;;;;;;;5036446;28;20496;-72
2022/01/06 12:16:37;;;;;;;13.35;6.95;;;;;;;;;;5035451;28;20037;-72
2022/01/06 12:19:24;;;;;;;12.85;7.68;;;;;;;;;;5036612;28;20037;-72
2022/01/06 12:21:52;;;;;;;12.82;7.25;;;;;;;;;;5035585;28;20136;-72
2022/01/06 12:24:23;;;;;;;11.05;7.38;;;;;;;;;;5037083;28;20067;-72
2022/01/06 12:26:53;;;;;;;13.30;7.50;;;;;;;;;;5035743;28;20065;-71
2022/01/06 12:29:24;;;;;;;11.20;7.43;;;;;;;;;;5036457;28;20053;-72
2022/01/06 12:32:07;;;;;;;13.55;8.02;;;;;;;;;;5035878;28;20136;-73
2022/01/06 12:34:35;;;;;;;12.90;7.60;;;;;;;;;;5036956;28;20065;-72
2022/01/06 12:37:05;;;;;;;17.33;8.63;;;;;;;;;;5035748;28;20041;-73
2022/01/06 12:39:35;;;;;;;13.27;8.23;;;;;;;;;;5036454;28;20080;-72
2022/01/06 12:42:28;;;;;;;16.15;8.20;;;;;;;;;;5036874;28;20060;-73
2022/01/06 12:45:21;;;;;;;11.30;7.90;;;;;;;;;;5036622;28;20103;-73
2022/01/06 12:47:51;;;;;;;11.98;8.60;;;;;;;;;;5036755;28;20124;-74
2022/01/06 12:50:27;;;;;;;14.40;9.10;;;;;;;;;;5036587;28;20041;-71
2022/01/06 12:52:55;;;;;;;15.05;9.18;;;;;;;;;;5036371;28;20072;-72
2022/01/06 12:55:32;;;;;;;13.05;9.15;;;;;;;;;;5036237;28;20571;-71
2022/01/06 12:58:00;;;;;;;17.38;9.63;;;;;;;;;;5035803;28;20081;-71
2022/01/06 13:03:40;;;;;;;15.02;10.75;;;;;;;;;;5036082;28;20065;-71
2022/01/06 13:06:09;;;;;;;16.15;9.30;;;;;;;;;;5036239;28;20129;-72
2022/01/06 13:11:57;;;;;;;21.50;11.90;;;;;;;;;;5036674;28;20080;-72
2022/01/06 13:14:32;;;;;;;17.50;10.30;;;;;;;;;;5035055;28;20096;-72
2022/01/06 13:17:05;;;;;;;17.92;10.55;;;;;;;;;;5034431;28;20041;-72
2022/01/06 13:20:02;;;;;;;19.90;11.15;;;;;;;;;;5035657;28;20128;-71
2022/01/06 13:22:49;;;;;;;41.97;29.67;;;;;;;;;;5034213;28;20132;-71
2022/01/06 13:25:29;;;;;;;17.40;11.73;;;;;;;;;;5036250;28;20080;-71
2022/01/06 13:27:59;;;;;;;19.75;12.93;;;;;;;;;;5034500;28;20050;-71
2022/01/06 13:30:30;;;;;;;19.58;13.77;;;;;;;;;;5034523;28;20042;-71
2022/01/06 13:33:05;;;;;;;21.55;14.75;;;;;;;;;;5035116;28;20439;-71
2022/01/06 13:35:34;;;;;;;24.70;15.73;;;;;;;;;;5034280;28;20560;-72
2022/01/06 13:38:05;;;;;;;25.10;15.52;;;;;;;;;;5035497;28;20056;-72
2022/01/06 13:40:49;;;;;;;24.75;17.15;;;;;;;;;;5036211;28;20103;-72
2022/01/06 13:43:23;;;;;;;29.00;18.65;;;;;;;;;;5034326;28;20510;-72
2022/01/06 13:45:51;;;;;;;28.70;17.10;;;;;;;;;;5035524;28;20065;-72
2022/01/06 13:51:05;;;;;;;25.83;17.45;;;;;;;;;;5034962;28;20117;-71
2022/01/06 13:53:46;;;;;;;26.92;18.15;;;;;;;;;;5017818;28;20037;-72
2022/01/06 13:56:19;;;;;;;25.08;16.13;;;;;;;;;;5035454;28;20503;-72
2022/01/06 13:58:49;;;;;;;20.60;14.05;;;;;;;;;;5035347;28;20045;-72
2022/01/06 14:01:17;;;;;;;21.25;14.10;;;;;;;;;;5037099;28;20041;-72
2022/01/06 14:03:46;;;;;;;19.30;13.30;;;;;;;;;;5049434;28;20036;-72
2022/01/06 14:06:16;;;;;;;17.88;12.65;;;;;;;;;;5045795;28;20041;-72
2022/01/06 14:08:44;;;;;;;19.00;13.10;;;;;;;;;;5048169;28;20045;-72
2022/01/06 14:11:16;;;;;;;22.20;13.80;;;;;;;;;;5054222;28;20041;-72
2022/01/06 14:13:47;;;;;;;22.80;13.93;;;;;;;;;;5054882;28;20045;-72
2022/01/06 14:16:20;;;;;;;25.35;15.27;;;;;;;;;;5053655;28;20044;-72
2022/01/06 14:18:53;;;;;;;23.58;13.88;;;;;;;;;;5055157;28;20041;-72
2022/01/06 14:21:21;;;;;;;22.05;14.93;;;;;;;;;;5054130;28;20491;-73
2022/01/06 14:24:13;;;;;;;22.98;15.50;;;;;;;;;;5055154;28;20040;-73
2022/01/06 14:27:07;;;;;;;29.90;15.60;;;;;;;;;;5055647;28;20044;-73
2022/01/06 14:29:40;;;;;;;27.40;17.13;;;;;;;;;;5054946;28;20056;-73
2022/01/06 14:32:12;;;;;;;29.17;16.90;;;;;;;;;;5054180;28;20049;-74
2022/01/06 14:34:43;;;;;;;25.50;15.90;;;;;;;;;;5055508;28;20044;-73
2022/01/06 14:37:30;;;;;;;27.60;15.95;;;;;;;;;;5054983;28;20128;-73
2022/01/06 14:39:57;;;;;;;28.00;16.40;;;;;;;;;;5054505;28;20064;-73
2022/01/06 14:46:16;;;;;;;26.90;16.25;;;;;;;;;;5054136;28;20037;-72
2022/01/06 14:48:45;;;;;;;30.55;17.67;;;;;;;;;;5054758;28;20041;-72
2022/01/06 14:51:37;;;;;;;24.90;17.23;;;;;;;;;;5054406;28;20059;-72
2022/01/06 14:54:30;;;;;;;30.02;18.08;;;;;;;;;;5054489;28;20472;-72
2022/01/06 14:56:58;;;;;;;55.67;34.65;;;;;;;;;;5053947;28;20144;-72
2022/01/06 15:03:04;;;;;;;21.23;15.75;;;;;;;;;;5052965;28;20495;-72
2022/01/06 15:05:35;;;;;;;26.00;17.67;;;;;;;;;;5053740;28;20072;-72
2022/01/06 15:08:03;;;;;;;24.55;16.23;;;;;;;;;;5053041;28;20450;-72
2022/01/06 15:10:36;;;;;;;24.95;14.23;;;;;;;;;;5053039;28;20033;-72
2022/01/06 15:13:07;;;;;;;21.17;13.32;;;;;;;;;;5052454;28;20087;-72
2022/01/06 15:15:35;;;;;;;22.85;14.98;;;;;;;;;;5054343;28;20045;-72
2022/01/06 15:18:05;;;;;;;31.25;16.02;;;;;;;;;;5054046;28;20045;-71
2022/01/06 15:20:35;;;;;;;25.30;15.10;;;;;;;;;;5051773;28;20041;-71
2022/01/06 15:23:07;;;;;;;22.40;15.52;;;;;;;;;;5053982;28;20065;-72
2022/01/06 15:25:35;;;;;;;23.83;15.95;;;;;;;;;;5053913;28;20045;-72
2022/01/06 15:28:07;;;;;;;26.63;16.33;;;;;;;;;;5051938;28;20037;-70
2022/01/06 15:30:35;;;;;;;26.98;17.08;;;;;;;;;;5050453;28;20440;-71
2022/01/06 15:33:03;;;;;;;24.48;15.60;;;;;;;;;;5045772;28;20044;-71
2022/01/06 15:35:32;;;;;;;27.30;17.15;;;;;;;;;;5025293;28;20074;-71
2022/01/06 15:38:05;;;;;;;27.63;16.85;;;;;;;;;;5013721;28;20053;-71
2022/01/06 15:40:33;;;;;;;21.70;14.32;;;;;;;;;;5027946;28;20041;-71
2022/01/06 15:43:03;;;;;;;24.35;14.80;;;;;;;;;;5061090;28;20065;-70
2022/01/06 15:45:30;;;;;;;20.17;12.80;;;;;;;;;;5020928;28;20063;-72
2022/01/06 15:47:58;;;;;;;21.35;12.18;;;;;;;;;;5032179;28;20045;-71